sensor_id;sensor_type;location;lat;lon;timestamp;P1;durP1;ratioP1;P2;durP2;ratioP2
18653;SDS011;9456;47.824;16.228;2023-10-09T00:02:27;2.20;;;2.00;;
18653;SDS011;9456;47.824;16.228;2023-10-09T00:04:56;2.00;;;1.90;;
18653;SDS011;9456;47.824;16.228;2023-10-09T00:07:25;3.13;;;2.10;;
18653;SDS011;9456;47.824;16.228;2023-10-09T00:09:55;2.23;;;2.03;;
18653;SDS011;9456;47.824;16.228;2023-10-09T00:12:24;2.33;;;2.00;;
18653;SDS011;9456;47.824;16.228;2023-10-09T00:14:53;2.47;;;1.63;;
18653;SDS011;9456;47.824;16.228;2023-10-09T00:17:22;2.57;;;2.13;;
18653;SDS011;9456;47.824;16.228;2023-10-09T00:19:51;2.00;;;1.87;;
18653;SDS011;9456;47.824;16.228;2023-10-09T00:22:20;2.13;;;1.97;;
18653;SDS011;9456;47.824;16.228;2023-10-09T00:24:56;2.17;;;1.90;;
18653;SDS011;9456;47.824;16.228;2023-10-09T00:27:42;2.23;;;2.03;;
18653;SDS011;9456;47.824;16.228;2023-10-09T00:30:12;2.07;;;1.97;;
18653;SDS011;9456;47.824;16.228;2023-10-09T00:32:42;1.77;;;1.67;;
18653;SDS011;9456;47.824;16.228;2023-10-09T00:38:11;2.20;;;2.03;;
18653;SDS011;9456;47.824;16.228;2023-10-09T00:40:44;2.03;;;1.90;;
18653;SDS011;9456;47.824;16.228;2023-10-09T00:43:14;2.37;;;2.17;;
18653;SDS011;9456;47.824;16.228;2023-10-09T00:45:43;2.30;;;2.10;;
18653;SDS011;9456;47.824;16.228;2023-10-09T00:48:11;1.90;;;1.80;;
18653;SDS011;9456;47.824;16.228;2023-10-09T00:50:42;2.33;;;1.87;;
18653;SDS011;9456;47.824;16.228;2023-10-09T00:53:11;2.83;;;1.93;;
18653;SDS011;9456;47.824;16.228;2023-10-09T00:55:40;1.87;;;1.77;;
18653;SDS011;9456;47.824;16.228;2023-10-09T00:58:12;2.50;;;2.00;;
18653;SDS011;9456;47.824;16.228;2023-10-09T01:00:40;2.00;;;1.90;;
18653;SDS011;9456;47.824;16.228;2023-10-09T01:03:18;2.10;;;2.00;;
18653;SDS011;9456;47.824;16.228;2023-10-09T01:05:53;3.47;;;2.20;;
18653;SDS011;9456;47.824;16.228;2023-10-09T01:08:22;2.13;;;2.00;;
18653;SDS011;9456;47.824;16.228;2023-10-09T01:10:53;2.00;;;1.90;;
18653;SDS011;9456;47.824;16.228;2023-10-09T01:13:24;2.07;;;1.87;;
18653;SDS011;9456;47.824;16.228;2023-10-09T01:15:56;2.20;;;2.00;;
18653;SDS011;9456;47.824;16.228;2023-10-09T01:18:25;2.70;;;2.30;;
18653;SDS011;9456;47.824;16.228;2023-10-09T01:20:55;2.10;;;2.00;;
18653;SDS011;9456;47.824;16.228;2023-10-09T01:28:49;2.90;;;2.13;;
18653;SDS011;9456;47.824;16.228;2023-10-09T01:31:18;2.20;;;2.00;;
18653;SDS011;9456;47.824;16.228;2023-10-09T01:33:47;2.17;;;1.93;;
18653;SDS011;9456;47.824;16.228;2023-10-09T01:36:16;2.23;;;2.03;;
18653;SDS011;9456;47.824;16.228;2023-10-09T01:38:45;2.93;;;2.17;;
18653;SDS011;9456;47.824;16.228;2023-10-09T01:41:14;2.97;;;2.07;;
18653;SDS011;9456;47.824;16.228;2023-10-09T01:43:42;2.00;;;1.80;;
18653;SDS011;9456;47.824;16.228;2023-10-09T01:46:12;2.90;;;2.20;;
18653;SDS011;9456;47.824;16.228;2023-10-09T01:48:40;2.40;;;2.17;;
18653;SDS011;9456;47.824;16.228;2023-10-09T01:51:13;2.50;;;2.30;;
18653;SDS011;9456;47.824;16.228;2023-10-09T01:53:44;2.10;;;2.00;;
18653;SDS011;9456;47.824;16.228;2023-10-09T01:56:14;2.33;;;2.13;;
18653;SDS011;9456;47.824;16.228;2023-10-09T01:58:43;2.30;;;2.17;;
18653;SDS011;9456;47.824;16.228;2023-10-09T02:01:12;3.20;;;2.00;;
18653;SDS011;9456;47.824;16.228;2023-10-09T02:03:42;1.97;;;1.87;;
18653;SDS011;9456;47.824;16.228;2023-10-09T02:06:11;2.40;;;1.90;;
18653;SDS011;9456;47.824;16.228;2023-10-09T02:08:52;2.17;;;2.07;;
18653;SDS011;9456;47.824;16.228;2023-10-09T02:11:21;2.40;;;2.13;;
18653;SDS011;9456;47.824;16.228;2023-10-09T02:14:04;2.33;;;1.83;;
18653;SDS011;9456;47.824;16.228;2023-10-09T02:16:33;3.50;;;2.27;;
18653;SDS011;9456;47.824;16.228;2023-10-09T02:19:02;2.07;;;1.97;;
18653;SDS011;9456;47.824;16.228;2023-10-09T02:21:31;3.30;;;2.30;;
18653;SDS011;9456;47.824;16.228;2023-10-09T02:24:01;2.17;;;2.07;;
18653;SDS011;9456;47.824;16.228;2023-10-09T02:26:32;1.90;;;1.80;;
18653;SDS011;9456;47.824;16.228;2023-10-09T02:29:07;2.00;;;1.90;;
18653;SDS011;9456;47.824;16.228;2023-10-09T02:31:36;2.40;;;2.20;;
18653;SDS011;9456;47.824;16.228;2023-10-09T02:34:06;1.90;;;1.70;;
18653;SDS011;9456;47.824;16.228;2023-10-09T02:36:35;2.30;;;2.10;;
18653;SDS011;9456;47.824;16.228;2023-10-09T02:39:04;3.13;;;2.20;;
18653;SDS011;9456;47.824;16.228;2023-10-09T02:41:34;2.17;;;1.90;;
18653;SDS011;9456;47.824;16.228;2023-10-09T02:44:03;2.40;;;2.20;;
18653;SDS011;9456;47.824;16.228;2023-10-09T02:46:33;1.83;;;1.73;;
18653;SDS011;9456;47.824;16.228;2023-10-09T02:49:02;2.00;;;1.83;;
18653;SDS011;9456;47.824;16.228;2023-10-09T02:51:31;2.20;;;2.00;;
18653;SDS011;9456;47.824;16.228;2023-10-09T02:54:00;1.90;;;1.80;;
18653;SDS011;9456;47.824;16.228;2023-10-09T02:56:35;2.17;;;1.97;;
18653;SDS011;9456;47.824;16.228;2023-10-09T02:59:05;1.87;;;1.77;;
18653;SDS011;9456;47.824;16.228;2023-10-09T03:01:34;1.77;;;1.67;;
18653;SDS011;9456;47.824;16.228;2023-10-09T03:04:03;2.10;;;2.00;;
18653;SDS011;9456;47.824;16.228;2023-10-09T03:06:32;2.53;;;2.00;;
18653;SDS011;9456;47.824;16.228;2023-10-09T03:09:01;2.77;;;2.20;;
18653;SDS011;9456;47.824;16.228;2023-10-09T03:11:30;2.33;;;2.03;;
18653;SDS011;9456;47.824;16.228;2023-10-09T03:13:59;2.00;;;1.90;;
18653;SDS011;9456;47.824;16.228;2023-10-09T03:16:28;2.23;;;2.10;;
18653;SDS011;9456;47.824;16.228;2023-10-09T03:18:57;2.60;;;1.90;;
18653;SDS011;9456;47.824;16.228;2023-10-09T03:21:26;2.50;;;2.30;;
18653;SDS011;9456;47.824;16.228;2023-10-09T03:23:54;2.27;;;2.13;;
18653;SDS011;9456;47.824;16.228;2023-10-09T03:26:23;3.73;;;2.83;;
18653;SDS011;9456;47.824;16.228;2023-10-09T03:28:52;2.43;;;2.23;;
18653;SDS011;9456;47.824;16.228;2023-10-09T03:31:21;2.30;;;2.20;;
18653;SDS011;9456;47.824;16.228;2023-10-09T03:33:50;5.67;;;2.50;;
18653;SDS011;9456;47.824;16.228;2023-10-09T03:36:19;2.20;;;2.00;;
18653;SDS011;9456;47.824;16.228;2023-10-09T03:38:48;2.13;;;2.03;;
18653;SDS011;9456;47.824;16.228;2023-10-09T03:41:16;2.77;;;1.80;;
18653;SDS011;9456;47.824;16.228;2023-10-09T03:43:45;3.20;;;2.37;;
18653;SDS011;9456;47.824;16.228;2023-10-09T03:46:14;2.03;;;1.93;;
18653;SDS011;9456;47.824;16.228;2023-10-09T03:48:48;2.33;;;2.13;;
18653;SDS011;9456;47.824;16.228;2023-10-09T03:51:17;1.97;;;1.80;;
18653;SDS011;9456;47.824;16.228;2023-10-09T03:53:48;2.63;;;1.90;;
18653;SDS011;9456;47.824;16.228;2023-10-09T03:56:17;4.20;;;2.53;;
18653;SDS011;9456;47.824;16.228;2023-10-09T03:58:46;4.53;;;2.00;;
18653;SDS011;9456;47.824;16.228;2023-10-09T04:01:15;4.93;;;2.73;;
18653;SDS011;9456;47.824;16.228;2023-10-09T04:03:44;3.00;;;2.40;;
18653;SDS011;9456;47.824;16.228;2023-10-09T04:06:13;3.50;;;2.50;;
18653;SDS011;9456;47.824;16.228;2023-10-09T04:08:42;2.53;;;2.30;;
18653;SDS011;9456;47.824;16.228;2023-10-09T04:11:11;4.90;;;2.43;;
18653;SDS011;9456;47.824;16.228;2023-10-09T04:13:44;2.50;;;2.30;;
18653;SDS011;9456;47.824;16.228;2023-10-09T04:16:13;2.23;;;2.10;;
18653;SDS011;9456;47.824;16.228;2023-10-09T04:19:01;4.40;;;2.43;;
18653;SDS011;9456;47.824;16.228;2023-10-09T04:21:33;2.60;;;2.40;;
18653;SDS011;9456;47.824;16.228;2023-10-09T04:24:02;2.83;;;2.50;;
18653;SDS011;9456;47.824;16.228;2023-10-09T04:26:38;6.30;;;2.23;;
18653;SDS011;9456;47.824;16.228;2023-10-09T04:29:07;2.40;;;2.20;;
18653;SDS011;9456;47.824;16.228;2023-10-09T04:31:36;4.57;;;2.50;;
18653;SDS011;9456;47.824;16.228;2023-10-09T04:34:04;2.60;;;2.30;;
18653;SDS011;9456;47.824;16.228;2023-10-09T04:36:49;2.83;;;2.47;;
18653;SDS011;9456;47.824;16.228;2023-10-09T04:39:18;2.60;;;2.40;;
18653;SDS011;9456;47.824;16.228;2023-10-09T04:42:06;2.17;;;2.07;;
18653;SDS011;9456;47.824;16.228;2023-10-09T04:44:53;2.57;;;2.30;;
18653;SDS011;9456;47.824;16.228;2023-10-09T04:47:46;2.80;;;2.43;;
18653;SDS011;9456;47.824;16.228;2023-10-09T04:50:24;4.60;;;2.60;;
18653;SDS011;9456;47.824;16.228;2023-10-09T04:53:11;4.13;;;2.40;;
18653;SDS011;9456;47.824;16.228;2023-10-09T04:55:52;3.03;;;2.37;;
18653;SDS011;9456;47.824;16.228;2023-10-09T04:58:21;6.20;;;2.40;;
18653;SDS011;9456;47.824;16.228;2023-10-09T05:00:53;5.17;;;2.50;;
18653;SDS011;9456;47.824;16.228;2023-10-09T05:03:32;4.43;;;2.13;;
18653;SDS011;9456;47.824;16.228;2023-10-09T05:06:13;4.90;;;2.60;;
18653;SDS011;9456;47.824;16.228;2023-10-09T05:08:48;5.10;;;2.63;;
18653;SDS011;9456;47.824;16.228;2023-10-09T05:11:17;2.67;;;2.40;;
18653;SDS011;9456;47.824;16.228;2023-10-09T05:14:01;3.50;;;2.30;;
18653;SDS011;9456;47.824;16.228;2023-10-09T05:16:39;4.27;;;2.33;;
18653;SDS011;9456;47.824;16.228;2023-10-09T05:19:15;3.10;;;2.63;;
18653;SDS011;9456;47.824;16.228;2023-10-09T05:21:56;5.00;;;2.80;;
18653;SDS011;9456;47.824;16.228;2023-10-09T05:24:25;3.80;;;2.97;;
18653;SDS011;9456;47.824;16.228;2023-10-09T05:26:54;3.53;;;2.67;;
18653;SDS011;9456;47.824;16.228;2023-10-09T05:29:23;3.37;;;2.43;;
18653;SDS011;9456;47.824;16.228;2023-10-09T05:32:10;2.73;;;2.40;;
18653;SDS011;9456;47.824;16.228;2023-10-09T05:34:42;3.20;;;2.50;;
18653;SDS011;9456;47.824;16.228;2023-10-09T05:37:31;5.23;;;2.30;;
18653;SDS011;9456;47.824;16.228;2023-10-09T05:40:00;2.43;;;2.23;;
18653;SDS011;9456;47.824;16.228;2023-10-09T05:42:35;4.30;;;2.70;;
18653;SDS011;9456;47.824;16.228;2023-10-09T05:45:10;3.43;;;2.93;;
18653;SDS011;9456;47.824;16.228;2023-10-09T05:48:01;4.17;;;2.83;;
18653;SDS011;9456;47.824;16.228;2023-10-09T05:50:32;5.20;;;3.20;;
18653;SDS011;9456;47.824;16.228;2023-10-09T05:53:04;7.40;;;3.07;;
18653;SDS011;9456;47.824;16.228;2023-10-09T05:55:36;5.23;;;2.73;;
18653;SDS011;9456;47.824;16.228;2023-10-09T05:58:22;6.30;;;3.20;;
18653;SDS011;9456;47.824;16.228;2023-10-09T06:01:09;7.97;;;3.23;;
18653;SDS011;9456;47.824;16.228;2023-10-09T06:03:56;8.07;;;2.93;;
18653;SDS011;9456;47.824;16.228;2023-10-09T06:06:31;12.43;;;3.93;;
18653;SDS011;9456;47.824;16.228;2023-10-09T06:09:01;10.17;;;3.40;;
18653;SDS011;9456;47.824;16.228;2023-10-09T06:11:48;5.37;;;2.97;;
18653;SDS011;9456;47.824;16.228;2023-10-09T06:14:16;6.90;;;2.87;;
18653;SDS011;9456;47.824;16.228;2023-10-09T06:16:51;2.87;;;2.67;;
18653;SDS011;9456;47.824;16.228;2023-10-09T06:19:29;5.37;;;2.57;;
18653;SDS011;9456;47.824;16.228;2023-10-09T06:22:03;3.30;;;2.37;;
18653;SDS011;9456;47.824;16.228;2023-10-09T06:24:46;2.50;;;2.30;;
18653;SDS011;9456;47.824;16.228;2023-10-09T06:27:21;3.03;;;2.37;;
18653;SDS011;9456;47.824;16.228;2023-10-09T06:29:51;2.10;;;2.00;;
18653;SDS011;9456;47.824;16.228;2023-10-09T06:32:20;2.90;;;2.33;;
18653;SDS011;9456;47.824;16.228;2023-10-09T06:35:05;2.93;;;2.10;;
18653;SDS011;9456;47.824;16.228;2023-10-09T06:37:44;2.40;;;2.10;;
18653;SDS011;9456;47.824;16.228;2023-10-09T06:40:38;5.97;;;2.37;;
18653;SDS011;9456;47.824;16.228;2023-10-09T06:43:25;2.60;;;2.03;;
18653;SDS011;9456;47.824;16.228;2023-10-09T06:45:54;3.60;;;2.37;;
18653;SDS011;9456;47.824;16.228;2023-10-09T06:48:23;3.40;;;1.80;;
18653;SDS011;9456;47.824;16.228;2023-10-09T06:51:08;2.03;;;1.93;;
18653;SDS011;9456;47.824;16.228;2023-10-09T06:53:40;3.67;;;1.97;;
18653;SDS011;9456;47.824;16.228;2023-10-09T06:56:28;4.83;;;2.10;;
18653;SDS011;9456;47.824;16.228;2023-10-09T06:58:57;7.33;;;1.83;;
18653;SDS011;9456;47.824;16.228;2023-10-09T07:01:26;2.40;;;1.67;;
18653;SDS011;9456;47.824;16.228;2023-10-09T07:04:06;8.97;;;2.90;;
18653;SDS011;9456;47.824;16.228;2023-10-09T07:06:45;4.23;;;1.80;;
18653;SDS011;9456;47.824;16.228;2023-10-09T07:09:17;10.87;;;2.00;;
18653;SDS011;9456;47.824;16.228;2023-10-09T07:11:55;3.27;;;2.00;;
18653;SDS011;9456;47.824;16.228;2023-10-09T07:14:31;2.90;;;1.90;;
18653;SDS011;9456;47.824;16.228;2023-10-09T07:17:19;4.70;;;2.07;;
18653;SDS011;9456;47.824;16.228;2023-10-09T07:19:54;7.43;;;2.60;;
18653;SDS011;9456;47.824;16.228;2023-10-09T07:22:37;9.37;;;2.40;;
18653;SDS011;9456;47.824;16.228;2023-10-09T07:25:20;3.33;;;1.83;;
18653;SDS011;9456;47.824;16.228;2023-10-09T07:27:55;3.60;;;2.27;;
18653;SDS011;9456;47.824;16.228;2023-10-09T07:30:23;2.80;;;1.87;;
18653;SDS011;9456;47.824;16.228;2023-10-09T07:33:05;4.17;;;1.90;;
18653;SDS011;9456;47.824;16.228;2023-10-09T07:35:33;5.43;;;2.23;;
18653;SDS011;9456;47.824;16.228;2023-10-09T07:38:22;4.37;;;1.90;;
18653;SDS011;9456;47.824;16.228;2023-10-09T07:40:51;4.33;;;2.00;;
18653;SDS011;9456;47.824;16.228;2023-10-09T07:43:22;4.07;;;1.80;;
18653;SDS011;9456;47.824;16.228;2023-10-09T07:45:53;3.67;;;2.07;;
18653;SDS011;9456;47.824;16.228;2023-10-09T07:48:41;4.17;;;2.40;;
18653;SDS011;9456;47.824;16.228;2023-10-09T07:51:15;2.73;;;1.93;;
18653;SDS011;9456;47.824;16.228;2023-10-09T07:53:44;3.17;;;1.60;;
18653;SDS011;9456;47.824;16.228;2023-10-09T07:56:13;2.40;;;1.63;;
18653;SDS011;9456;47.824;16.228;2023-10-09T07:58:42;6.57;;;2.00;;
18653;SDS011;9456;47.824;16.228;2023-10-09T08:01:14;5.20;;;1.83;;
18653;SDS011;9456;47.824;16.228;2023-10-09T08:03:43;2.20;;;2.00;;
18653;SDS011;9456;47.824;16.228;2023-10-09T08:06:13;4.17;;;2.10;;
18653;SDS011;9456;47.824;16.228;2023-10-09T08:09:04;4.33;;;2.03;;
18653;SDS011;9456;47.824;16.228;2023-10-09T08:11:58;5.10;;;2.17;;
18653;SDS011;9456;47.824;16.228;2023-10-09T08:14:27;4.77;;;2.10;;
18653;SDS011;9456;47.824;16.228;2023-10-09T08:17:11;3.83;;;2.00;;
18653;SDS011;9456;47.824;16.228;2023-10-09T08:19:41;3.27;;;1.87;;
18653;SDS011;9456;47.824;16.228;2023-10-09T08:22:24;7.33;;;2.20;;
18653;SDS011;9456;47.824;16.228;2023-10-09T08:25:24;2.43;;;2.20;;
18653;SDS011;9456;47.824;16.228;2023-10-09T08:27:56;4.50;;;1.80;;
18653;SDS011;9456;47.824;16.228;2023-10-09T08:30:25;3.03;;;1.83;;
18653;SDS011;9456;47.824;16.228;2023-10-09T08:32:57;3.90;;;1.97;;
18653;SDS011;9456;47.824;16.228;2023-10-09T08:35:28;2.23;;;1.97;;
18653;SDS011;9456;47.824;16.228;2023-10-09T08:37:57;4.17;;;2.23;;
18653;SDS011;9456;47.824;16.228;2023-10-09T08:40:32;3.90;;;2.10;;
18653;SDS011;9456;47.824;16.228;2023-10-09T08:43:02;3.83;;;2.20;;
18653;SDS011;9456;47.824;16.228;2023-10-09T08:45:30;2.50;;;2.03;;
18653;SDS011;9456;47.824;16.228;2023-10-09T08:47:59;5.33;;;2.23;;
18653;SDS011;9456;47.824;16.228;2023-10-09T08:50:29;2.70;;;2.07;;
18653;SDS011;9456;47.824;16.228;2023-10-09T08:52:58;3.50;;;2.13;;
18653;SDS011;9456;47.824;16.228;2023-10-09T08:55:27;2.53;;;2.10;;
18653;SDS011;9456;47.824;16.228;2023-10-09T08:57:55;4.40;;;2.40;;
18653;SDS011;9456;47.824;16.228;2023-10-09T09:00:25;2.73;;;2.53;;
18653;SDS011;9456;47.824;16.228;2023-10-09T09:02:53;3.60;;;2.33;;
18653;SDS011;9456;47.824;16.228;2023-10-09T09:05:22;4.37;;;2.43;;
18653;SDS011;9456;47.824;16.228;2023-10-09T09:07:51;3.50;;;2.30;;
18653;SDS011;9456;47.824;16.228;2023-10-09T09:10:20;2.40;;;2.07;;
18653;SDS011;9456;47.824;16.228;2023-10-09T09:12:49;4.33;;;2.20;;
18653;SDS011;9456;47.824;16.228;2023-10-09T09:15:18;7.07;;;2.60;;
18653;SDS011;9456;47.824;16.228;2023-10-09T09:17:46;3.57;;;2.10;;
18653;SDS011;9456;47.824;16.228;2023-10-09T09:20:23;2.83;;;2.60;;
18653;SDS011;9456;47.824;16.228;2023-10-09T09:22:55;4.33;;;2.13;;
18653;SDS011;9456;47.824;16.228;2023-10-09T09:25:24;4.27;;;2.27;;
18653;SDS011;9456;47.824;16.228;2023-10-09T09:27:51;2.53;;;1.80;;
18653;SDS011;9456;47.824;16.228;2023-10-09T09:30:24;2.37;;;2.17;;
18653;SDS011;9456;47.824;16.228;2023-10-09T09:32:53;3.13;;;1.83;;
18653;SDS011;9456;47.824;16.228;2023-10-09T09:35:41;2.87;;;2.10;;
18653;SDS011;9456;47.824;16.228;2023-10-09T09:38:13;2.20;;;1.90;;
18653;SDS011;9456;47.824;16.228;2023-10-09T09:40:42;4.13;;;2.10;;
18653;SDS011;9456;47.824;16.228;2023-10-09T09:43:11;4.83;;;2.30;;
18653;SDS011;9456;47.824;16.228;2023-10-09T09:45:40;6.03;;;2.23;;
18653;SDS011;9456;47.824;16.228;2023-10-09T09:48:09;4.97;;;2.07;;
18653;SDS011;9456;47.824;16.228;2023-10-09T09:50:38;5.10;;;2.30;;
18653;SDS011;9456;47.824;16.228;2023-10-09T09:53:10;3.07;;;2.10;;
18653;SDS011;9456;47.824;16.228;2023-10-09T09:55:41;3.43;;;2.60;;
18653;SDS011;9456;47.824;16.228;2023-10-09T09:58:09;5.13;;;2.07;;
18653;SDS011;9456;47.824;16.228;2023-10-09T10:00:38;4.80;;;2.13;;
18653;SDS011;9456;47.824;16.228;2023-10-09T10:03:11;4.50;;;2.10;;
18653;SDS011;9456;47.824;16.228;2023-10-09T10:05:39;5.80;;;2.00;;
18653;SDS011;9456;47.824;16.228;2023-10-09T10:08:08;4.50;;;2.17;;
18653;SDS011;9456;47.824;16.228;2023-10-09T10:10:38;8.83;;;2.33;;
18653;SDS011;9456;47.824;16.228;2023-10-09T10:13:15;8.97;;;1.97;;
18653;SDS011;9456;47.824;16.228;2023-10-09T10:15:58;5.47;;;2.00;;
18653;SDS011;9456;47.824;16.228;2023-10-09T10:18:54;2.87;;;2.10;;
18653;SDS011;9456;47.824;16.228;2023-10-09T10:21:23;2.43;;;1.80;;
18653;SDS011;9456;47.824;16.228;2023-10-09T10:24:00;3.50;;;1.90;;
18653;SDS011;9456;47.824;16.228;2023-10-09T10:26:33;3.93;;;2.10;;
18653;SDS011;9456;47.824;16.228;2023-10-09T10:29:14;4.77;;;2.07;;
18653;SDS011;9456;47.824;16.228;2023-10-09T10:31:56;4.37;;;2.40;;
18653;SDS011;9456;47.824;16.228;2023-10-09T10:34:25;6.17;;;1.50;;
18653;SDS011;9456;47.824;16.228;2023-10-09T10:36:54;3.83;;;2.00;;
18653;SDS011;9456;47.824;16.228;2023-10-09T10:39:26;6.67;;;2.27;;
18653;SDS011;9456;47.824;16.228;2023-10-09T10:42:09;3.50;;;2.37;;
18653;SDS011;9456;47.824;16.228;2023-10-09T10:44:39;3.73;;;2.00;;
18653;SDS011;9456;47.824;16.228;2023-10-09T10:47:09;6.53;;;2.30;;
18653;SDS011;9456;47.824;16.228;2023-10-09T10:49:49;3.37;;;2.13;;
18653;SDS011;9456;47.824;16.228;2023-10-09T10:52:21;2.87;;;2.20;;
18653;SDS011;9456;47.824;16.228;2023-10-09T10:54:50;6.17;;;2.43;;
18653;SDS011;9456;47.824;16.228;2023-10-09T10:57:36;7.40;;;2.40;;
18653;SDS011;9456;47.824;16.228;2023-10-09T11:00:12;5.97;;;2.40;;
18653;SDS011;9456;47.824;16.228;2023-10-09T11:02:44;6.43;;;2.40;;
18653;SDS011;9456;47.824;16.228;2023-10-09T11:05:13;5.60;;;2.50;;
18653;SDS011;9456;47.824;16.228;2023-10-09T11:07:44;7.53;;;2.60;;
18653;SDS011;9456;47.824;16.228;2023-10-09T11:10:13;8.33;;;2.47;;
18653;SDS011;9456;47.824;16.228;2023-10-09T11:12:45;17.60;;;3.10;;
18653;SDS011;9456;47.824;16.228;2023-10-09T11:15:31;4.43;;;2.23;;
18653;SDS011;9456;47.824;16.228;2023-10-09T11:18:04;6.93;;;2.27;;
18653;SDS011;9456;47.824;16.228;2023-10-09T11:20:32;6.87;;;2.97;;
18653;SDS011;9456;47.824;16.228;2023-10-09T11:23:03;7.30;;;2.77;;
18653;SDS011;9456;47.824;16.228;2023-10-09T11:25:42;9.30;;;2.80;;
18653;SDS011;9456;47.824;16.228;2023-10-09T11:28:21;6.93;;;2.30;;
18653;SDS011;9456;47.824;16.228;2023-10-09T11:31:06;6.30;;;2.63;;
18653;SDS011;9456;47.824;16.228;2023-10-09T11:33:45;10.03;;;2.80;;
18653;SDS011;9456;47.824;16.228;2023-10-09T11:36:14;6.23;;;2.30;;
18653;SDS011;9456;47.824;16.228;2023-10-09T11:38:43;13.07;;;2.50;;
18653;SDS011;9456;47.824;16.228;2023-10-09T11:41:13;3.23;;;2.00;;
18653;SDS011;9456;47.824;16.228;2023-10-09T11:43:51;4.63;;;2.00;;
18653;SDS011;9456;47.824;16.228;2023-10-09T11:46:20;6.63;;;2.37;;
18653;SDS011;9456;47.824;16.228;2023-10-09T11:49:15;5.50;;;2.30;;
18653;SDS011;9456;47.824;16.228;2023-10-09T11:51:53;4.17;;;2.00;;
18653;SDS011;9456;47.824;16.228;2023-10-09T11:54:38;5.50;;;2.20;;
18653;SDS011;9456;47.824;16.228;2023-10-09T11:57:06;7.63;;;2.20;;
18653;SDS011;9456;47.824;16.228;2023-10-09T11:59:35;2.80;;;2.20;;
18653;SDS011;9456;47.824;16.228;2023-10-09T12:02:04;5.37;;;2.57;;
18653;SDS011;9456;47.824;16.228;2023-10-09T12:04:34;4.57;;;2.73;;
18653;SDS011;9456;47.824;16.228;2023-10-09T12:07:06;4.87;;;2.70;;
18653;SDS011;9456;47.824;16.228;2023-10-09T12:09:35;10.90;;;2.77;;
18653;SDS011;9456;47.824;16.228;2023-10-09T12:12:05;21.10;;;4.53;;
18653;SDS011;9456;47.824;16.228;2023-10-09T12:14:36;9.17;;;3.43;;
18653;SDS011;9456;47.824;16.228;2023-10-09T12:17:05;10.83;;;3.43;;
18653;SDS011;9456;47.824;16.228;2023-10-09T12:19:34;11.83;;;3.30;;
18653;SDS011;9456;47.824;16.228;2023-10-09T12:22:03;13.90;;;4.10;;
18653;SDS011;9456;47.824;16.228;2023-10-09T12:24:32;13.77;;;4.03;;
18653;SDS011;9456;47.824;16.228;2023-10-09T12:27:00;10.50;;;3.63;;
18653;SDS011;9456;47.824;16.228;2023-10-09T12:29:30;9.93;;;3.50;;
18653;SDS011;9456;47.824;16.228;2023-10-09T12:31:58;19.50;;;3.93;;
18653;SDS011;9456;47.824;16.228;2023-10-09T12:34:27;12.17;;;3.93;;
18653;SDS011;9456;47.824;16.228;2023-10-09T12:36:56;8.77;;;3.40;;
18653;SDS011;9456;47.824;16.228;2023-10-09T12:39:26;11.90;;;4.20;;
18653;SDS011;9456;47.824;16.228;2023-10-09T12:41:55;16.90;;;4.63;;
18653;SDS011;9456;47.824;16.228;2023-10-09T12:44:24;4.77;;;3.37;;
18653;SDS011;9456;47.824;16.228;2023-10-09T12:46:53;5.27;;;3.57;;
18653;SDS011;9456;47.824;16.228;2023-10-09T12:49:21;5.73;;;3.73;;
18653;SDS011;9456;47.824;16.228;2023-10-09T12:51:52;9.63;;;3.83;;
18653;SDS011;9456;47.824;16.228;2023-10-09T12:54:21;5.83;;;3.63;;
18653;SDS011;9456;47.824;16.228;2023-10-09T12:56:50;5.93;;;3.47;;
18653;SDS011;9456;47.824;16.228;2023-10-09T12:59:19;5.53;;;3.53;;
18653;SDS011;9456;47.824;16.228;2023-10-09T13:01:48;10.07;;;4.30;;
18653;SDS011;9456;47.824;16.228;2023-10-09T13:04:18;6.07;;;3.70;;
18653;SDS011;9456;47.824;16.228;2023-10-09T13:06:49;7.00;;;3.80;;
18653;SDS011;9456;47.824;16.228;2023-10-09T13:09:18;11.77;;;3.87;;
18653;SDS011;9456;47.824;16.228;2023-10-09T13:11:48;6.40;;;3.50;;
18653;SDS011;9456;47.824;16.228;2023-10-09T13:14:17;7.60;;;3.77;;
18653;SDS011;9456;47.824;16.228;2023-10-09T13:16:46;9.73;;;3.73;;
18653;SDS011;9456;47.824;16.228;2023-10-09T13:19:14;7.57;;;3.60;;
18653;SDS011;9456;47.824;16.228;2023-10-09T13:21:43;7.17;;;3.17;;
18653;SDS011;9456;47.824;16.228;2023-10-09T13:24:12;11.80;;;3.90;;
18653;SDS011;9456;47.824;16.228;2023-10-09T13:26:41;10.67;;;4.13;;
18653;SDS011;9456;47.824;16.228;2023-10-09T13:29:10;5.73;;;3.40;;
18653;SDS011;9456;47.824;16.228;2023-10-09T13:31:39;11.10;;;3.63;;
18653;SDS011;9456;47.824;16.228;2023-10-09T13:34:14;12.73;;;3.50;;
18653;SDS011;9456;47.824;16.228;2023-10-09T13:36:43;7.80;;;2.93;;
18653;SDS011;9456;47.824;16.228;2023-10-09T13:39:12;13.10;;;3.03;;
18653;SDS011;9456;47.824;16.228;2023-10-09T13:41:51;8.93;;;3.37;;
18653;SDS011;9456;47.824;16.228;2023-10-09T13:44:21;12.27;;;3.30;;
18653;SDS011;9456;47.824;16.228;2023-10-09T13:46:50;5.77;;;3.40;;
18653;SDS011;9456;47.824;16.228;2023-10-09T13:49:19;10.10;;;3.80;;
18653;SDS011;9456;47.824;16.228;2023-10-09T13:51:48;4.87;;;3.90;;
18653;SDS011;9456;47.824;16.228;2023-10-09T13:54:17;8.00;;;4.10;;
18653;SDS011;9456;47.824;16.228;2023-10-09T13:56:48;5.77;;;3.63;;
18653;SDS011;9456;47.824;16.228;2023-10-09T13:59:17;9.57;;;3.30;;
18653;SDS011;9456;47.824;16.228;2023-10-09T14:01:46;7.47;;;3.57;;
18653;SDS011;9456;47.824;16.228;2023-10-09T14:04:15;7.27;;;3.47;;
18653;SDS011;9456;47.824;16.228;2023-10-09T14:06:45;7.30;;;3.93;;
18653;SDS011;9456;47.824;16.228;2023-10-09T14:09:14;6.80;;;3.83;;
18653;SDS011;9456;47.824;16.228;2023-10-09T14:11:55;6.70;;;3.23;;
18653;SDS011;9456;47.824;16.228;2023-10-09T14:14:26;8.10;;;3.93;;
18653;SDS011;9456;47.824;16.228;2023-10-09T14:16:55;10.57;;;4.07;;
18653;SDS011;9456;47.824;16.228;2023-10-09T14:19:24;7.80;;;3.57;;
18653;SDS011;9456;47.824;16.228;2023-10-09T14:21:52;5.13;;;3.20;;
18653;SDS011;9456;47.824;16.228;2023-10-09T14:24:21;6.40;;;3.83;;
18653;SDS011;9456;47.824;16.228;2023-10-09T14:26:50;4.53;;;3.40;;
18653;SDS011;9456;47.824;16.228;2023-10-09T14:29:19;9.03;;;3.30;;
18653;SDS011;9456;47.824;16.228;2023-10-09T14:31:48;7.10;;;3.97;;
18653;SDS011;9456;47.824;16.228;2023-10-09T14:34:17;5.27;;;3.60;;
18653;SDS011;9456;47.824;16.228;2023-10-09T14:36:46;5.83;;;3.63;;
18653;SDS011;9456;47.824;16.228;2023-10-09T14:39:15;9.63;;;3.70;;
18653;SDS011;9456;47.824;16.228;2023-10-09T14:41:44;5.87;;;3.27;;
18653;SDS011;9456;47.824;16.228;2023-10-09T14:44:13;7.30;;;3.97;;
18653;SDS011;9456;47.824;16.228;2023-10-09T14:46:47;5.30;;;3.23;;
18653;SDS011;9456;47.824;16.228;2023-10-09T14:49:15;4.17;;;3.33;;
18653;SDS011;9456;47.824;16.228;2023-10-09T14:51:44;5.40;;;3.80;;
18653;SDS011;9456;47.824;16.228;2023-10-09T14:54:13;8.43;;;3.87;;
18653;SDS011;9456;47.824;16.228;2023-10-09T14:56:42;7.07;;;3.80;;
18653;SDS011;9456;47.824;16.228;2023-10-09T14:59:11;6.00;;;3.73;;
18653;SDS011;9456;47.824;16.228;2023-10-09T15:01:40;6.47;;;4.07;;
18653;SDS011;9456;47.824;16.228;2023-10-09T15:04:09;6.70;;;3.80;;
18653;SDS011;9456;47.824;16.228;2023-10-09T15:06:38;6.03;;;4.13;;
18653;SDS011;9456;47.824;16.228;2023-10-09T15:09:07;6.53;;;4.03;;
18653;SDS011;9456;47.824;16.228;2023-10-09T15:11:36;9.40;;;3.90;;
18653;SDS011;9456;47.824;16.228;2023-10-09T15:14:06;6.63;;;4.47;;
18653;SDS011;9456;47.824;16.228;2023-10-09T15:16:35;11.97;;;4.27;;
18653;SDS011;9456;47.824;16.228;2023-10-09T15:19:03;6.03;;;4.13;;
18653;SDS011;9456;47.824;16.228;2023-10-09T15:21:33;5.63;;;4.10;;
18653;SDS011;9456;47.824;16.228;2023-10-09T15:24:05;7.33;;;4.13;;
18653;SDS011;9456;47.824;16.228;2023-10-09T15:26:34;7.33;;;4.60;;